Time;durP1;ratioP1;P1;durP2;ratioP2;P2;SDS_P1;SDS_P2;PMS_P1;PMS_P2;Temp;Humidity;BMP_temperature;BMP_pressure;BME280_temperature;BME280_humidity;BME280_pressure;Samples;Min_cycle;Max_cycle;Signal;HPM_P1;HPM_P2
2022/09/02 00:04:09;;;;;;;2.60;1.98;;;;;;;19.30;47.56;101369.14;1743028;80;25476;-63
2022/09/02 00:06:37;;;;;;;15.05;3.10;;;;;;;19.30;47.88;101378.69;1735497;79;25917;-62
2022/09/02 00:09:08;;;;;;;8.03;2.58;;;;;;;19.22;47.60;101382.33;1739500;80;26549;-62
2022/09/02 00:11:37;;;;;;;9.85;2.83;;;;;;;19.06;48.15;101381.89;1744153;80;25770;-63
2022/09/02 00:14:10;;;;;;;7.78;2.72;;;;;;;18.93;47.94;101380.56;1744394;82;27452;-62
2022/09/02 00:16:38;;;;;;;6.25;2.33;;;;;;;18.86;48.15;101390.97;1740565;80;25791;-63
2022/09/02 00:19:04;;;;;;;6.42;2.60;;;;;;;18.84;48.51;101394.38;1741588;81;25743;-62
2022/09/02 00:21:33;;;;;;;8.60;3.10;;;;;;;18.85;48.62;101391.47;1742379;80;25947;-63
2022/09/02 00:24:03;;;;;;;10.20;3.08;;;;;;;18.88;48.67;101387.53;1743530;80;25698;-62
2022/09/02 00:26:30;;;;;;;5.72;2.15;;;;;;;18.91;48.65;101382.61;1736254;80;27530;-63
2022/09/02 00:28:58;;;;;;;7.62;2.37;;;;;;;18.99;48.75;101387.72;1733055;82;25757;-63
2022/09/02 00:31:26;;;;;;;6.33;2.72;;;;;;;19.07;48.65;101390.41;1734700;80;25699;-63
2022/09/02 00:33:54;;;;;;;9.13;2.60;;;;;;;19.11;48.54;101394.98;1733929;81;26588;-63
2022/09/02 00:36:21;;;;;;;10.00;2.95;;;;;;;19.07;48.27;101393.13;1736633;80;25719;-63
2022/09/02 00:38:48;;;;;;;10.93;3.30;;;;;;;19.02;48.47;101394.16;1735279;80;26874;-64
2022/09/02 00:41:20;;;;;;;8.95;3.05;;;;;;;18.85;48.32;101404.27;1718928;80;26144;-62
2022/09/02 00:43:55;;;;;;;14.45;2.87;;;;;;;18.76;48.52;101405.66;1735187;81;25719;-63
2022/09/02 00:46:25;;;;;;;7.22;3.20;;;;;;;18.70;49.05;101410.42;1738234;80;27855;-63
2022/09/02 00:49:23;;;;;;;12.85;3.33;;;;;;;18.59;48.97;101401.27;1752799;80;26413;-62
2022/09/02 00:52:05;;;;;;;9.55;2.92;;;;;;;18.59;49.09;101404.84;1738601;80;27306;-63
2022/09/02 00:54:36;;;;;;;8.00;3.22;;;;;;;18.67;49.37;101408.56;1728654;80;26556;-63
2022/09/02 00:57:08;;;;;;;7.75;3.65;;;;;;;18.62;50.20;101407.72;1731075;82;25756;-63
2022/09/02 01:00:06;;;;;;;8.70;3.15;;;;;;;18.59;50.17;101409.45;1739121;82;25970;-62
2022/09/02 01:02:36;;;;;;;12.90;3.50;;;;;;;18.59;50.90;101411.65;1739260;82;25724;-63
2022/09/02 01:05:07;;;;;;;11.57;3.47;;;;;;;18.50;50.89;101415.41;1739146;80;27435;-63
2022/09/02 01:07:37;;;;;;;8.55;3.60;;;;;;;18.46;50.99;101423.61;1734616;80;25786;-62
2022/09/02 01:10:09;;;;;;;6.22;3.00;;;;;;;18.47;51.12;101426.64;1730328;81;25762;-63
2022/09/02 01:12:37;;;;;;;12.50;3.67;;;;;;;18.42;51.00;101428.52;1738034;80;25881;-62
2022/09/02 01:15:08;;;;;;;13.22;3.37;;;;;;;18.41;51.31;101424.62;1731073;82;25802;-62
2022/09/02 01:17:39;;;;;;;4.53;2.80;;;;;;;18.44;51.39;101421.03;1737699;80;28225;-63
2022/09/02 01:20:12;;;;;;;9.90;3.40;;;;;;;18.50;51.66;101414.58;1731969;81;25802;-64
2022/09/02 01:22:41;;;;;;;11.22;4.10;;;;;;;18.58;53.14;101420.00;1724421;80;25703;-63
2022/09/02 01:25:16;;;;;;;18.82;3.92;;;;;;;18.60;52.73;101422.89;1742351;80;25787;-63
2022/09/02 01:27:43;;;;;;;7.80;3.70;;;;;;;18.64;53.12;101416.58;1738667;80;25507;-62
2022/09/02 01:30:19;;;;;;;12.10;3.90;;;;;;;18.65;53.65;101416.08;1737693;80;27502;-62
2022/09/02 01:32:46;;;;;;;10.03;4.28;;;;;;;18.63;53.66;101414.88;1739960;80;25795;-62
2022/09/02 01:35:15;;;;;;;13.48;3.90;;;;;;;18.58;53.60;101415.39;1739774;80;25723;-63
2022/09/02 01:37:44;;;;;;;10.10;4.25;;;;;;;18.50;53.99;101423.59;1730959;82;25774;-63
2022/09/02 01:40:16;;;;;;;10.00;4.45;;;;;;;18.46;53.97;101431.25;1738686;81;25514;-62
2022/09/02 01:42:45;;;;;;;9.45;4.20;;;;;;;18.42;53.70;101425.80;1726174;82;27535;-63
2022/09/02 01:45:14;;;;;;;11.75;5.15;;;;;;;18.41;54.35;101432.79;1730278;80;25885;-63
2022/09/02 01:47:41;;;;;;;10.13;4.87;;;;;;;18.35;54.86;101437.05;1690472;82;25818;-62
2022/09/02 01:50:09;;;;;;;14.53;5.85;;;;;;;18.34;55.22;101444.03;1689115;82;27875;-62
2022/09/02 01:52:37;;;;;;;13.78;5.10;;;;;;;18.30;55.67;101444.37;1684231;83;25935;-62
2022/09/02 01:55:05;;;;;;;19.35;5.40;;;;;;;18.26;56.32;101451.69;1689887;82;28978;-62
2022/09/02 01:57:32;;;;;;;17.23;5.58;;;;;;;18.21;57.06;101448.64;1678899;83;25724;-63
2022/09/02 02:00:00;;;;;;;13.53;5.15;;;;;;;18.21;56.78;101454.08;1679303;83;25761;-62
2022/09/02 02:02:28;;;;;;;10.45;5.42;;;;;;;18.16;56.55;101449.15;1678223;85;25898;-63
2022/09/02 02:04:55;;;;;;;15.38;5.72;;;;;;;18.08;58.22;101451.34;1682557;83;25761;-63
2022/09/02 02:07:23;;;;;;;14.78;5.08;;;;;;;18.06;57.59;101450.69;1677958;83;27486;-63
2022/09/02 02:09:51;;;;;;;14.50;5.65;;;;;;;18.11;58.95;101456.46;1680590;83;25890;-62
2022/09/02 02:12:19;;;;;;;18.55;6.45;;;;;;;18.11;57.94;101452.88;1692374;84;25467;-63
2022/09/02 02:14:47;;;;;;;14.50;5.67;;;;;;;18.10;59.08;101456.12;1692805;83;25988;-62
2022/09/02 02:17:14;;;;;;;19.65;5.70;;;;;;;17.92;59.67;101460.34;1700598;82;25626;-62
2022/09/02 02:19:42;;;;;;;20.40;5.60;;;;;;;17.84;60.12;101466.61;1679539;83;27321;-63
2022/09/02 02:22:10;;;;;;;20.57;6.53;;;;;;;17.86;60.59;101460.15;1693492;83;25713;-63
2022/09/02 02:24:38;;;;;;;15.88;5.47;;;;;;;17.70;61.11;101455.02;1698441;82;25800;-63
2022/09/02 02:27:05;;;;;;;11.33;5.33;;;;;;;17.62;61.40;101454.97;1692396;83;26734;-63
2022/09/02 02:29:32;;;;;;;15.78;5.40;;;;;;;17.52;62.34;101464.66;1675242;82;25792;-65
2022/09/02 02:31:59;;;;;;;13.25;5.42;;;;;;;17.50;61.92;101468.03;1677194;83;28333;-63
2022/09/02 02:34:26;;;;;;;12.28;5.17;;;;;;;17.47;62.49;101481.47;1692932;82;25743;-63
2022/09/02 02:36:53;;;;;;;19.02;6.28;;;;;;;17.47;62.48;101477.39;1692327;83;25685;-62
2022/09/02 02:39:21;;;;;;;11.40;5.03;;;;;;;17.43;62.75;101481.95;1690274;82;25923;-62
2022/09/02 02:41:48;;;;;;;12.05;5.25;;;;;;;17.41;63.38;101485.34;1696010;82;26015;-62
2022/09/02 02:44:16;;;;;;;13.35;5.00;;;;;;;17.35;63.34;101486.36;1692422;84;27462;-62
2022/09/02 02:46:43;;;;;;;8.90;4.45;;;;;;;17.21;64.26;101483.74;1712277;80;25797;-63
2022/09/02 02:49:12;;;;;;;15.23;5.42;;;;;;;17.14;65.54;101484.05;1733842;81;25814;-62
2022/09/02 02:51:38;;;;;;;8.28;4.70;;;;;;;17.02;66.37;101489.41;1733725;81;25830;-63
2022/09/02 02:54:06;;;;;;;18.75;4.37;;;;;;;16.89;66.71;101492.05;1734589;80;25822;-63
2022/09/02 02:56:34;;;;;;;15.80;4.90;;;;;;;16.92;66.08;101487.28;1731914;81;27484;-62
2022/09/02 02:59:03;;;;;;;11.28;5.55;;;;;;;16.94;66.18;101486.16;1728513;83;25717;-64
2022/09/02 03:01:32;;;;;;;7.78;4.47;;;;;;;16.98;66.29;101493.48;1721892;81;25749;-63
2022/09/02 03:03:59;;;;;;;14.03;4.30;;;;;;;17.00;66.01;101491.43;1719051;82;25907;-62
2022/09/02 03:06:28;;;;;;;16.40;4.28;;;;;;;17.06;65.60;101484.02;1718601;83;26504;-62
2022/09/02 03:08:56;;;;;;;11.33;4.05;;;;;;;17.17;65.59;101480.98;1718722;82;28518;-62
2022/09/02 03:11:27;;;;;;;10.13;4.83;;;;;;;17.28;65.57;101484.44;1705287;82;25531;-62
2022/09/02 03:13:54;;;;;;;8.05;4.75;;;;;;;17.32;66.17;101481.75;1715056;83;25481;-62
2022/09/02 03:16:22;;;;;;;11.70;5.17;;;;;;;17.37;65.80;101492.98;1714922;83;25879;-62
2022/09/02 03:18:50;;;;;;;17.70;4.45;;;;;;;17.35;66.37;101495.00;1715102;83;25891;-63
2022/09/02 03:21:18;;;;;;;10.65;4.28;;;;;;;17.32;65.90;101492.63;1714769;83;27471;-63
2022/09/02 03:23:46;;;;;;;8.25;4.30;;;;;;;17.33;65.83;101493.81;1722186;82;26385;-62
2022/09/02 03:26:18;;;;;;;9.55;4.10;;;;;;;17.29;66.71;101492.45;1744608;82;25790;-62
2022/09/02 03:28:47;;;;;;;8.58;4.05;;;;;;;17.14;67.29;101491.34;1721477;81;26496;-62
2022/09/02 03:31:19;;;;;;;11.03;4.42;;;;;;;16.95;68.28;101500.06;1733206;80;25731;-62
2022/09/02 03:33:47;;;;;;;9.68;4.20;;;;;;;16.85;68.24;101493.36;1733472;81;28410;-63
2022/09/02 03:36:26;;;;;;;11.73;3.75;;;;;;;16.87;68.17;101492.70;1735803;80;25902;-62
2022/09/02 03:38:55;;;;;;;9.83;4.20;;;;;;;16.91;68.47;101494.59;1715981;82;25730;-62
2022/09/02 03:41:22;;;;;;;7.05;4.12;;;;;;;16.82;69.77;101494.19;1744426;81;25813;-62
2022/09/02 03:43:50;;;;;;;10.58;4.35;;;;;;;16.77;69.82;101485.16;1740168;80;25945;-63
2022/09/02 03:46:18;;;;;;;8.20;4.28;;;;;;;16.69;69.96;101487.83;1737238;80;27542;-63
2022/09/02 03:48:46;;;;;;;14.43;5.17;;;;;;;16.66;70.04;101484.06;1734728;80;25722;-62
2022/09/02 03:51:13;;;;;;;13.78;4.85;;;;;;;16.67;70.17;101488.48;1735223;80;25804;-62
2022/09/02 03:53:41;;;;;;;12.23;4.25;;;;;;;16.68;70.19;101492.91;1742989;80;25805;-62
2022/09/02 03:56:11;;;;;;;11.78;4.70;;;;;;;16.76;69.88;101492.96;1735189;80;25747;-64
2022/09/02 03:58:39;;;;;;;5.92;3.75;;;;;;;16.87;69.87;101496.78;1739691;80;27530;-61
2022/09/02 04:01:06;;;;;;;11.60;4.17;;;;;;;16.97;69.78;101500.77;1735224;80;26053;-62
2022/09/02 04:03:34;;;;;;;18.35;4.72;;;;;;;16.98;69.51;101506.55;1736196;81;25767;-63
2022/09/02 04:06:01;;;;;;;15.40;4.62;;;;;;;17.09;69.22;101514.09;1736662;80;25892;-62
2022/09/02 04:08:28;;;;;;;9.70;4.20;;;;;;;17.08;68.87;101520.02;1736189;81;27340;-62
2022/09/02 04:10:57;;;;;;;7.62;4.08;;;;;;;17.10;68.64;101518.52;1712661;81;29254;-62
2022/09/02 04:13:25;;;;;;;12.70;4.83;;;;;;;17.13;68.68;101524.48;1733425;80;26283;-63
2022/09/02 04:15:53;;;;;;;11.08;4.53;;;;;;;17.19;68.69;101522.98;1734585;80;25765;-62
2022/09/02 04:18:21;;;;;;;13.85;4.15;;;;;;;17.23;68.83;101529.79;1739348;80;25937;-63
2022/09/02 04:20:50;;;;;;;12.30;4.30;;;;;;;17.28;68.65;101526.09;1734813;81;25764;-63
2022/09/02 04:23:18;;;;;;;10.48;4.45;;;;;;;17.38;68.16;101533.28;1736465;81;27608;-63
2022/09/02 04:25:46;;;;;;;10.23;4.53;;;;;;;17.46;68.06;101541.48;1742111;80;25947;-63
2022/09/02 04:28:15;;;;;;;8.58;4.25;;;;;;;17.48;67.79;101538.94;1741164;80;25691;-63
2022/09/02 04:30:43;;;;;;;13.60;5.10;;;;;;;17.47;67.48;101537.23;1747714;80;25956;-63
2022/09/02 04:33:12;;;;;;;15.13;4.50;;;;;;;17.46;67.24;101543.68;1733067;81;25773;-63
2022/09/02 04:35:41;;;;;;;11.78;5.08;;;;;;;17.38;67.39;101540.92;1707988;82;27519;-63
2022/09/02 04:38:10;;;;;;;14.53;4.65;;;;;;;17.29;67.26;101540.05;1734379;80;25804;-63
2022/09/02 04:40:42;;;;;;;8.80;4.35;;;;;;;17.20;67.59;101541.02;1738882;80;25748;-64
2022/09/02 04:43:12;;;;;;;12.00;6.20;;;;;;;17.15;67.51;101539.27;1732828;82;25949;-63
2022/09/02 04:45:43;;;;;;;18.12;4.65;;;;;;;17.13;68.08;101538.56;1733787;80;25829;-64
2022/09/02 04:48:13;;;;;;;14.90;5.70;;;;;;;17.11;67.92;101547.41;1718700;82;27530;-64
2022/09/02 04:50:42;;;;;;;11.60;5.70;;;;;;;17.11;67.55;101544.17;1724512;82;25965;-63
2022/09/02 04:53:09;;;;;;;13.43;5.10;;;;;;;17.11;67.67;101542.81;1704571;82;25824;-63
2022/09/02 04:55:40;;;;;;;13.38;5.03;;;;;;;17.13;67.82;101533.12;1723244;82;25801;-63
2022/09/02 04:58:10;;;;;;;11.12;4.90;;;;;;;17.15;67.66;101534.70;1681448;83;25946;-64
2022/09/02 05:00:41;;;;;;;13.70;5.28;;;;;;;17.16;67.67;101528.25;1676276;85;28331;-63
2022/09/02 05:03:10;;;;;;;13.15;5.03;;;;;;;17.24;67.66;101527.95;1677018;84;25741;-64
2022/09/02 05:05:38;;;;;;;13.50;4.78;;;;;;;17.36;67.58;101531.58;1703135;82;25750;-63
2022/09/02 05:08:06;;;;;;;11.25;4.60;;;;;;;17.40;67.29;101531.23;1688782;82;27967;-63
2022/09/02 05:10:34;;;;;;;18.75;4.55;;;;;;;17.48;67.00;101523.14;1719914;82;25454;-62
2022/09/02 05:13:02;;;;;;;13.38;4.72;;;;;;;17.56;66.97;101535.90;1727445;82;27499;-63
2022/09/02 05:15:30;;;;;;;15.75;4.37;;;;;;;17.68;66.75;101534.08;1718594;82;25810;-62
2022/09/02 05:17:57;;;;;;;10.18;4.08;;;;;;;17.77;66.58;101524.58;1676938;83;25818;-65
2022/09/02 05:20:27;;;;;;;12.50;4.05;;;;;;;17.82;66.20;101532.59;1683351;82;25928;-62
2022/09/02 05:22:54;;;;;;;13.20;5.20;;;;;;;17.84;65.89;101530.56;1711920;82;26176;-64
2022/09/02 05:25:24;;;;;;;14.23;5.05;;;;;;;17.88;65.54;101532.97;1703637;82;27527;-64
2022/09/02 05:27:50;;;;;;;9.43;4.58;;;;;;;17.87;65.37;101529.38;1722125;82;25798;-61
2022/09/02 05:30:18;;;;;;;8.30;4.25;;;;;;;17.84;65.22;101530.56;1719901;82;25557;-61
2022/09/02 05:32:46;;;;;;;15.58;4.92;;;;;;;17.87;64.99;101525.30;1697464;82;25781;-63
2022/09/02 05:35:15;;;;;;;13.53;6.15;;;;;;;17.90;65.02;101522.73;1679914;82;25801;-63
2022/09/02 05:37:43;;;;;;;9.38;4.30;;;;;;;17.89;64.61;101532.79;1710704;82;27628;-64
2022/09/02 05:40:12;;;;;;;15.50;5.35;;;;;;;17.84;64.46;101523.77;1690960;84;25778;-63
2022/09/02 05:42:40;;;;;;;11.45;4.62;;;;;;;17.77;64.23;101530.89;1693434;82;25791;-63
2022/09/02 05:45:09;;;;;;;9.25;5.10;;;;;;;17.68;64.01;101537.32;1692307;82;25779;-62
2022/09/02 05:47:36;;;;;;;13.80;4.70;;;;;;;17.68;64.28;101538.68;1686486;82;25770;-62
2022/09/02 05:50:05;;;;;;;22.87;4.87;;;;;;;17.70;64.26;101535.78;1693595;82;27458;-63
2022/09/02 05:52:34;;;;;;;13.68;5.12;;;;;;;17.71;64.25;101536.97;1691305;82;26172;-63
2022/09/02 05:55:02;;;;;;;14.50;5.12;;;;;;;17.75;64.41;101533.44;1692555;82;26012;-64
2022/09/02 05:57:30;;;;;;;18.12;4.80;;;;;;;17.86;64.59;101530.39;1704229;82;26790;-64
2022/09/02 05:59:59;;;;;;;15.85;5.47;;;;;;;17.93;64.21;101534.67;1709677;83;26573;-63
2022/09/02 06:02:28;;;;;;;20.43;6.65;;;;;;;18.01;64.44;101540.69;1678854;82;27464;-63
2022/09/02 06:04:56;;;;;;;14.83;6.85;;;;;;;18.03;64.20;101539.98;1683640;82;25825;-63
2022/09/02 06:07:25;;;;;;;12.90;6.85;;;;;;;18.12;64.49;101543.06;1726997;82;25814;-63
2022/09/02 06:09:53;;;;;;;16.95;5.60;;;;;;;18.15;64.28;101544.94;1727534;82;26386;-63
2022/09/02 06:12:21;;;;;;;26.93;12.43;;;;;;;18.21;64.15;101548.87;1707057;82;25669;-62
2022/09/02 06:14:49;;;;;;;16.17;6.12;;;;;;;18.30;64.08;101549.75;1724505;82;27432;-63
2022/09/02 06:17:17;;;;;;;12.90;5.47;;;;;;;18.40;63.70;101553.17;1696267;82;25765;-63
2022/09/02 06:19:46;;;;;;;14.60;4.92;;;;;;;18.42;63.33;101542.94;1707515;82;25909;-63
2022/09/02 06:22:14;;;;;;;23.07;4.75;;;;;;;18.47;63.17;101553.33;1726855;82;26655;-62
2022/09/02 06:24:42;;;;;;;16.50;5.53;;;;;;;18.55;63.13;101557.94;1708196;82;25813;-62
2022/09/02 06:27:11;;;;;;;16.17;5.22;;;;;;;18.61;62.75;101564.92;1724071;82;27467;-62
2022/09/02 06:29:41;;;;;;;32.67;5.58;;;;;;;18.61;62.41;101561.33;1727363;83;25995;-63
2022/09/02 06:32:09;;;;;;;16.05;4.90;;;;;;;18.60;62.25;101563.22;1727559;82;25767;-62
2022/09/02 06:34:38;;;;;;;21.55;5.45;;;;;;;18.65;62.16;101565.96;1726638;82;25851;-64
2022/09/02 06:37:05;;;;;;;13.68;5.65;;;;;;;18.70;61.92;101574.46;1718525;82;25704;-63
2022/09/02 06:39:32;;;;;;;11.55;5.70;;;;;;;18.73;61.59;101574.13;1687130;82;27449;-63
2022/09/02 06:42:00;;;;;;;14.23;5.58;;;;;;;18.78;61.42;101575.82;1688840;82;25822;-63
2022/09/02 06:44:29;;;;;;;12.35;5.30;;;;;;;18.85;61.18;101573.27;1725058;82;25726;-62
2022/09/02 06:46:58;;;;;;;30.08;7.30;;;;;;;18.87;60.97;101575.32;1703049;82;25812;-61
2022/09/02 06:49:27;;;;;;;52.25;31.60;;;;;;;18.88;60.89;101569.69;1724678;80;26588;-64
2022/09/02 06:51:59;;;;;;;17.67;5.78;;;;;;;18.94;60.57;101569.55;1735893;80;27621;-62
2022/09/02 06:54:28;;;;;;;15.88;6.60;;;;;;;18.89;59.98;101571.39;1732755;81;25747;-62
2022/09/02 06:56:57;;;;;;;14.35;6.03;;;;;;;18.88;60.29;101572.41;1730973;82;25746;-62
2022/09/02 06:59:25;;;;;;;16.65;6.05;;;;;;;18.93;60.48;101578.75;1735456;80;25897;-63
2022/09/02 07:01:54;;;;;;;13.15;6.00;;;;;;;19.00;60.22;101574.83;1734343;81;25978;-62
2022/09/02 07:07:11;;;;;;;12.98;5.97;;;;;;;19.17;60.10;101585.17;1735744;82;27174;-63
2022/09/02 07:09:43;;;;;;;18.12;6.28;;;;;;;19.29;59.96;101574.25;1748686;81;25710;-62
2022/09/02 07:12:11;;;;;;;14.75;6.30;;;;;;;19.40;59.79;101570.30;1736216;82;26875;-63
2022/09/02 07:14:43;;;;;;;14.95;5.50;;;;;;;19.45;59.71;101573.36;1736168;82;26179;-62
2022/09/02 07:17:20;;;;;;;19.17;5.50;;;;;;;19.52;59.70;101574.85;1735167;82;27594;-62
2022/09/02 07:19:49;;;;;;;12.33;6.08;;;;;;;19.61;59.53;101575.69;1728148;83;25775;-62
2022/09/02 07:22:17;;;;;;;20.70;5.20;;;;;;;19.64;59.30;101576.18;1735636;80;25851;-62
2022/09/02 07:24:45;;;;;;;13.15;5.33;;;;;;;19.68;59.00;101580.77;1739729;81;26465;-63
2022/09/02 07:27:13;;;;;;;20.35;6.53;;;;;;;19.73;58.90;101585.17;1735729;80;26123;-62
2022/09/02 07:29:46;;;;;;;16.00;5.85;;;;;;;19.80;58.67;101578.50;1742108;81;27731;-63
2022/09/02 07:32:11;;;;;;;23.75;6.83;;;;;;;19.80;58.48;101582.59;1744075;81;25760;-63
2022/09/02 07:34:39;;;;;;;16.30;6.03;;;;;;;19.67;58.08;101585.89;1744341;81;25786;-63
2022/09/02 07:37:07;;;;;;;15.98;6.12;;;;;;;19.64;58.50;101575.31;1744700;82;25907;-63
2022/09/02 07:39:34;;;;;;;14.73;5.95;;;;;;;19.70;58.63;101575.47;1735105;80;25742;-63
2022/09/02 07:42:01;;;;;;;9.93;5.72;;;;;;;19.69;58.13;101575.13;1739510;82;28429;-63
2022/09/02 07:44:31;;;;;;;12.03;5.95;;;;;;;19.70;58.24;101564.55;1734717;82;25703;-63
2022/09/02 07:46:58;;;;;;;18.48;6.22;;;;;;;19.78;58.40;101571.86;1732984;82;25821;-63
2022/09/02 07:49:27;;;;;;;15.55;5.47;;;;;;;19.80;58.12;101571.67;1734989;81;25827;-63
2022/09/02 07:51:54;;;;;;;15.85;6.05;;;;;;;19.82;58.12;101570.98;1736378;80;25730;-63
2022/09/02 07:54:25;;;;;;;16.75;5.83;;;;;;;19.83;58.14;101567.23;1741486;80;27587;-63
2022/09/02 07:56:53;;;;;;;20.12;7.75;;;;;;;19.84;58.29;101571.67;1744236;82;25957;-63
2022/09/02 07:59:21;;;;;;;16.02;5.58;;;;;;;19.83;57.93;101576.26;1739852;81;25738;-62
2022/09/02 08:01:51;;;;;;;23.60;6.42;;;;;;;19.80;57.99;101574.41;1710515;83;26522;-63
2022/09/02 08:04:25;;;;;;;13.60;6.20;;;;;;;19.85;57.96;101572.87;1710549;83;25478;-63
2022/09/02 08:06:52;;;;;;;22.45;5.78;;;;;;;19.84;58.04;101576.59;1692890;82;27475;-62
2022/09/02 08:09:21;;;;;;;22.22;6.22;;;;;;;19.87;58.22;101572.69;1707517;82;25872;-63
2022/09/02 08:11:50;;;;;;;19.90;6.33;;;;;;;19.93;58.32;101572.49;1736577;80;25743;-65
2022/09/02 08:14:23;;;;;;;15.90;6.53;;;;;;;20.00;58.35;101563.41;1740807;80;26523;-62
2022/09/02 08:16:50;;;;;;;14.60;6.15;;;;;;;19.96;58.57;101567.52;1740924;82;33643;-63
2022/09/02 08:19:17;;;;;;;14.83;6.45;;;;;;;19.95;58.67;101569.08;1740692;81;27322;-62
2022/09/02 08:21:48;;;;;;;14.28;6.95;;;;;;;19.93;58.60;101569.76;1740691;82;25619;-62
2022/09/02 08:24:16;;;;;;;13.60;6.15;;;;;;;19.99;58.55;101571.27;1743197;82;25767;-63
2022/09/02 08:26:44;;;;;;;17.15;6.12;;;;;;;20.07;58.43;101566.29;1746985;82;26634;-62
2022/09/02 08:29:12;;;;;;;14.38;5.85;;;;;;;20.17;58.32;101564.67;1746589;82;25764;-63
2022/09/02 08:31:39;;;;;;;15.28;6.28;;;;;;;20.25;58.04;101570.61;1746438;82;27434;-62
2022/09/02 08:34:06;;;;;;;18.52;6.65;;;;;;;20.34;57.79;101568.16;1746330;82;25801;-62
2022/09/02 08:36:33;;;;;;;15.08;6.12;;;;;;;20.39;57.25;101571.72;1746367;81;26480;-63
2022/09/02 08:39:03;;;;;;;25.92;7.87;;;;;;;20.47;57.13;101569.75;1746369;82;25920;-64
2022/09/02 08:41:38;;;;;;;17.23;6.42;;;;;;;20.52;56.42;101579.30;1746525;82;26406;-62
2022/09/02 08:44:12;;;;;;;10.72;6.15;;;;;;;20.52;56.39;101576.58;1745655;81;27483;-63
2022/09/02 08:46:40;;;;;;;18.65;6.40;;;;;;;20.55;56.17;101575.69;1744963;81;25824;-63
2022/09/02 08:49:12;;;;;;;19.20;6.22;;;;;;;20.58;56.04;101575.30;1741456;81;25758;-63
2022/09/02 08:51:54;;;;;;;13.10;5.60;;;;;;;20.70;55.81;101576.24;1737935;82;25963;-62
2022/09/02 08:54:45;;;;;;;17.67;6.92;;;;;;;20.82;55.77;101573.45;1739599;82;25814;-63
2022/09/02 08:57:12;;;;;;;15.70;6.83;;;;;;;21.02;55.58;101566.92;1739537;80;28387;-63
2022/09/02 08:59:42;;;;;;;14.73;5.75;;;;;;;21.29;54.90;101564.59;1742032;81;25753;-63
2022/09/02 09:02:55;;;;;;;13.83;5.12;;;;;;;21.48;54.33;101569.17;1743148;81;25782;-63
2022/09/02 09:05:34;;;;;;;19.40;6.12;;;;;;;21.58;53.24;101571.14;1720079;82;25886;-63
2022/09/02 09:08:09;;;;;;;24.65;5.92;;;;;;;21.60;52.48;101573.67;1723256;82;25952;-63
2022/09/02 09:11:00;;;;;;;14.30;5.55;;;;;;;21.63;52.85;101566.46;1735790;82;27489;-63
2022/09/02 09:13:44;;;;;;;23.45;6.05;;;;;;;21.75;52.18;101565.45;1741943;82;25832;-63
2022/09/02 09:16:35;;;;;;;37.58;5.80;;;;;;;21.72;51.23;101564.78;1744350;81;25788;-63
2022/09/02 09:19:33;;;;;;;24.18;5.92;;;;;;;21.64;50.86;101564.89;1744299;81;25851;-63
2022/09/02 09:22:02;;;;;;;33.35;10.00;;;;;;;21.48;51.41;101564.53;1736543;82;27297;-63
2022/09/02 09:24:43;;;;;;;27.98;9.75;;;;;;;21.48;51.85;101564.53;1744494;82;27583;-63
2022/09/02 09:27:18;;;;;;;24.37;6.58;;;;;;;21.48;50.53;101569.17;1744533;82;25794;-63
2022/09/02 09:29:46;;;;;;;13.22;5.70;;;;;;;21.39;50.29;101561.56;1744616;80;25726;-63
2022/09/02 09:32:39;;;;;;;17.27;5.70;;;;;;;21.26;50.90;101570.43;1744570;81;25887;-63
2022/09/02 09:35:11;;;;;;;11.50;5.65;;;;;;;21.28;50.94;101574.37;1744757;82;25720;-62
2022/09/02 09:37:47;;;;;;;14.33;5.67;;;;;;;21.25;50.96;101573.70;1743110;81;27555;-62
2022/09/02 09:40:29;;;;;;;12.13;5.40;;;;;;;21.19;50.49;101579.06;1744458;82;25809;-62
2022/09/02 09:43:12;;;;;;;12.53;5.47;;;;;;;21.17;50.58;101572.42;1744382;82;25803;-63
2022/09/02 09:45:47;;;;;;;11.05;5.47;;;;;;;21.17;50.61;101573.78;1744751;81;25815;-62
2022/09/02 09:48:30;;;;;;;20.60;5.10;;;;;;;21.22;50.89;101576.80;1744229;80;25526;-63
2022/09/02 09:51:02;;;;;;;9.13;4.45;;;;;;;21.22;50.29;101580.91;1744713;82;27525;-63
2022/09/02 09:53:32;;;;;;;8.97;4.30;;;;;;;21.18;50.03;101582.33;1741866;81;25679;-63
2022/09/02 09:56:04;;;;;;;9.13;4.85;;;;;;;21.19;50.09;101581.80;1737572;82;25788;-63
2022/09/02 09:58:35;;;;;;;23.70;5.08;;;;;;;21.14;49.21;101585.09;1737448;81;26814;-63
2022/09/02 10:01:27;;;;;;;22.50;5.10;;;;;;;21.14;49.17;101575.52;1743331;81;25787;-63
2022/09/02 10:04:06;;;;;;;23.83;4.62;;;;;;;21.18;49.02;101570.02;1742527;81;27116;-63
2022/09/02 10:06:41;;;;;;;13.28;4.05;;;;;;;21.30;48.49;101572.27;1744478;82;25784;-63
2022/09/02 10:09:22;;;;;;;20.60;4.47;;;;;;;21.36;48.35;101561.95;1744422;82;25922;-63
2022/09/02 10:12:11;;;;;;;8.63;3.85;;;;;;;21.41;48.47;101574.05;1744579;81;25803;-64
2022/09/02 10:14:47;;;;;;;12.95;4.00;;;;;;;21.50;46.75;101565.73;1744443;82;25748;-63
2022/09/02 10:17:40;;;;;;;12.03;4.45;;;;;;;21.53;47.67;101566.20;1744237;82;28019;-63
2022/09/02 10:20:18;;;;;;;12.50;4.92;;;;;;;21.65;48.12;101566.59;1744636;82;25780;-63
2022/09/02 10:23:11;;;;;;;11.33;3.85;;;;;;;21.80;48.10;101564.34;1744565;82;25733;-63
2022/09/02 10:25:53;;;;;;;13.32;4.00;;;;;;;21.80;45.41;101562.47;1714912;83;25727;-63
2022/09/02 10:28:37;;;;;;;12.43;3.80;;;;;;;21.82;45.80;101564.50;1714620;83;25719;-63
2022/09/02 10:31:22;;;;;;;12.70;3.60;;;;;;;21.98;46.00;101564.78;1714826;83;27652;-63
2022/09/02 10:34:13;;;;;;;13.43;4.20;;;;;;;22.10;43.92;101564.28;1713796;83;25731;-64
2022/09/02 10:37:19;;;;;;;12.70;4.47;;;;;;;22.09;44.98;101562.08;1714668;83;25737;-64
2022/09/02 10:40:00;;;;;;;21.42;4.15;;;;;;;22.24;45.57;101566.11;1726150;82;26181;-63
2022/09/02 10:42:40;;;;;;;40.40;9.18;;;;;;;22.34;45.76;101563.07;1744556;82;26104;-63
2022/09/02 10:45:43;;;;;;;13.95;5.80;;;;;;;22.38;45.07;101562.98;1744402;81;27482;-63
2022/09/02 10:48:21;;;;;;;24.57;16.27;;;;;;;22.34;44.91;101564.44;1744503;81;25839;-64
2022/09/02 10:51:14;;;;;;;15.40;4.42;;;;;;;22.15;44.75;101561.80;1712618;81;25652;-64
2022/09/02 10:54:12;;;;;;;20.32;5.25;;;;;;;22.00;44.77;101562.70;1740835;81;25997;-64
2022/09/02 10:56:58;;;;;;;14.70;5.12;;;;;;;21.92;45.39;101562.81;1762110;80;25482;-63
2022/09/02 10:59:45;;;;;;;52.50;22.20;;;;;;;21.94;45.79;101562.62;1761287;81;27571;-64
2022/09/02 11:02:32;;;;;;;18.82;6.03;;;;;;;21.90;45.27;101558.05;1740848;81;25751;-64
2022/09/02 11:05:08;;;;;;;12.53;4.62;;;;;;;21.83;45.80;101559.33;1708693;83;26456;-63
2022/09/02 11:07:47;;;;;;;15.05;4.62;;;;;;;21.82;46.43;101562.27;1730712;82;25804;-63
2022/09/02 11:10:28;;;;;;;12.37;4.60;;;;;;;21.85;46.80;101568.74;1742421;81;25731;-63
2022/09/02 11:13:03;;;;;;;10.72;4.92;;;;;;;21.91;46.85;101561.66;1740798;81;27499;-63
2022/09/02 11:15:56;;;;;;;12.15;4.65;;;;;;;21.95;46.79;101558.84;1681197;82;27063;-64
2022/09/02 11:18:35;;;;;;;14.85;4.83;;;;;;;21.98;46.98;101563.94;1704486;82;26033;-63
2022/09/02 11:21:07;;;;;;;19.32;5.65;;;;;;;21.98;46.36;101555.73;1739545;82;25851;-63
2022/09/02 11:24:21;;;;;;;11.80;4.70;;;;;;;21.96;45.99;101557.80;1741167;80;25866;-63
2022/09/02 11:27:02;;;;;;;14.93;5.23;;;;;;;21.94;45.58;101554.40;1736121;80;28570;-64
2022/09/02 11:30:00;;;;;;;14.90;3.75;;;;;;;21.85;45.43;101564.09;1727473;82;25747;-63
2022/09/02 11:32:32;;;;;;;13.08;4.35;;;;;;;21.76;45.44;101565.78;1734870;81;25742;-63
2022/09/02 11:35:05;;;;;;;13.88;4.37;;;;;;;21.68;44.92;101565.36;1739642;82;26820;-63
2022/09/02 11:37:49;;;;;;;12.78;3.40;;;;;;;21.61;45.00;101562.52;1740189;81;26177;-64
2022/09/02 11:40:28;;;;;;;10.55;3.90;;;;;;;21.63;45.14;101560.45;1733302;82;27552;-63
2022/09/02 11:43:18;;;;;;;9.95;3.92;;;;;;;21.67;45.25;101564.52;1729957;82;26624;-64
2022/09/02 11:45:55;;;;;;;16.12;3.90;;;;;;;21.57;44.58;101563.39;1726610;82;26289;-63
2022/09/02 11:48:43;;;;;;;16.62;4.25;;;;;;;21.55;45.09;101560.02;1762752;80;25809;-64